createdAt,value
2022-08-10T00:00:01.140Z,935.90
2022-08-10T00:02:29.091Z,925.73
2022-08-10T00:04:56.985Z,896.07
2022-08-10T00:07:24.932Z,965.53
2022-08-10T00:09:52.825Z,933.57
2022-08-10T00:12:20.812Z,907.73
2022-08-10T00:14:50.372Z,934.47
2022-08-10T00:17:18.350Z,925.87
2022-08-10T00:20:03.116Z,904.63
2022-08-10T00:22:32.783Z,929.00
2022-08-10T00:25:01.140Z,906.43
2022-08-10T00:27:58.683Z,938.33
2022-08-10T00:30:19.480Z,920.17
2022-08-10T00:32:47.380Z,968.43
2022-08-10T00:35:15.332Z,947.40
2022-08-10T00:37:43.276Z,924.83
2022-08-10T00:40:35.201Z,919.10
2022-08-10T00:43:05.974Z,935.63
2022-08-10T00:45:35.483Z,869.00
2022-08-10T00:48:03.421Z,943.77
2022-08-10T00:50:31.617Z,929.17
2022-08-10T00:52:59.927Z,898.17
2022-08-10T00:55:28.250Z,925.03
2022-08-10T00:57:57.643Z,889.43
2022-08-10T01:00:25.951Z,942.57
2022-08-10T01:02:55.251Z,955.43
2022-08-10T01:05:23.405Z,907.90
2022-08-10T01:08:03.840Z,913.23
2022-08-10T01:10:43.515Z,924.33
2022-08-10T01:13:18.612Z,907.43
2022-08-10T01:15:55.204Z,922.77
2022-08-10T01:18:43.422Z,915.83
2022-08-10T01:21:33.141Z,905.93
2022-08-10T01:24:31.668Z,914.30
2022-08-10T01:27:19.847Z,898.90
2022-08-10T01:30:07.563Z,913.87
2022-08-10T01:32:51.496Z,909.17
2022-08-10T01:35:27.642Z,926.60
2022-08-10T01:38:04.569Z,898.70
2022-08-10T01:40:36.655Z,880.27
2022-08-10T01:43:08.919Z,935.87
2022-08-10T01:45:44.785Z,946.50
2022-08-10T01:48:29.252Z,935.43
2022-08-10T01:51:02.301Z,893.90
2022-08-10T01:53:41.281Z,943.27
2022-08-10T01:56:12.710Z,932.53
2022-08-10T01:58:41.909Z,898.17
2022-08-10T02:01:16.943Z,897.17
2022-08-10T02:04:03.980Z,918.77
2022-08-10T02:06:37.413Z,928.47
2022-08-10T02:09:07.407Z,904.50
2022-08-10T02:12:07.784Z,891.23
2022-08-10T02:14:33.378Z,942.17
2022-08-10T02:17:05.990Z,947.87
2022-08-10T02:19:36.522Z,945.07
2022-08-10T02:22:36.659Z,922.53
2022-08-10T02:24:55.488Z,883.33
2022-08-10T02:27:27.866Z,929.10
2022-08-10T02:29:57.079Z,908.60
2022-08-10T02:32:36.638Z,940.20
2022-08-10T02:35:18.657Z,948.73
2022-08-10T02:37:52.160Z,925.60
2022-08-10T02:45:12.913Z,898.90
2022-08-10T02:45:20.000Z,930.97
2022-08-10T02:46:11.715Z,926.60
2022-08-10T02:48:43.921Z,865.17
2022-08-10T02:51:18.294Z,912.17
2022-08-10T02:53:56.375Z,902.37
2022-08-10T02:56:33.174Z,908.00
2022-08-10T02:59:06.844Z,940.47
2022-08-10T03:01:39.375Z,924.57
2022-08-10T03:04:15.378Z,913.70
2022-08-10T03:06:48.839Z,918.93
2022-08-10T03:09:20.019Z,890.40
2022-08-10T03:12:35.169Z,960.73
2022-08-10T03:14:39.473Z,915.90
2022-08-10T03:17:08.585Z,929.13
2022-08-10T03:20:35.673Z,927.13
2022-08-10T03:22:28.519Z,894.07
2022-08-10T03:24:56.717Z,955.40
2022-08-10T03:27:25.267Z,940.83
2022-08-10T03:30:28.423Z,918.50
2022-08-10T03:32:42.676Z,935.80
2022-08-10T03:35:13.338Z,933.30
2022-08-10T03:37:41.423Z,935.53
2022-08-10T03:40:10.729Z,932.07
2022-08-10T03:42:40.308Z,920.83
2022-08-10T03:45:10.224Z,948.77
2022-08-10T03:47:40.106Z,978.20
2022-08-10T03:50:45.136Z,908.73
2022-08-10T03:52:59.840Z,907.30
2022-08-10T03:56:26.980Z,928.23
2022-08-10T03:58:16.231Z,883.57
2022-08-10T04:00:45.163Z,918.20
2022-08-10T04:03:13.811Z,908.37
2022-08-10T04:05:43.176Z,927.57
2022-08-10T04:08:11.123Z,941.60
2022-08-10T04:10:39.014Z,919.63
2022-08-10T04:13:07.133Z,953.67
2022-08-10T04:15:35.014Z,929.23
2022-08-10T04:18:06.312Z,924.00
2022-08-10T04:20:39.151Z,944.70
2022-08-10T04:23:13.207Z,915.10
2022-08-10T04:25:41.892Z,894.03
2022-08-10T04:28:11.539Z,899.00
2022-08-10T04:30:41.459Z,952.07
2022-08-10T04:33:11.652Z,908.97
2022-08-10T04:35:40.208Z,871.20
2022-08-10T04:38:10.451Z,932.23
2022-08-10T04:40:38.865Z,932.53
2022-08-10T04:43:12.700Z,899.57
2022-08-10T04:45:48.536Z,933.33
2022-08-10T04:48:42.172Z,903.73
2022-08-10T04:51:11.076Z,923.30
2022-08-10T04:54:04.559Z,950.17
2022-08-10T04:56:35.909Z,903.03
2022-08-10T04:59:05.083Z,920.83
2022-08-10T05:02:13.453Z,882.57
2022-08-10T05:04:33.958Z,902.13
2022-08-10T05:07:06.003Z,950.27
2022-08-10T05:10:03.558Z,913.10
2022-08-10T05:12:23.655Z,939.80
2022-08-10T05:14:52.224Z,899.83
2022-08-10T05:17:22.986Z,904.83
2022-08-10T05:20:02.793Z,944.87
2022-08-10T05:22:33.676Z,887.03
2022-08-10T05:25:03.075Z,952.77
2022-08-10T05:27:31.007Z,913.20
2022-08-10T05:30:02.262Z,975.33
2022-08-10T05:32:30.987Z,959.80
2022-08-10T05:34:58.894Z,938.73
2022-08-10T05:38:09.627Z,950.23
2022-08-10T05:40:19.472Z,949.43
2022-08-10T05:42:47.379Z,983.77
2022-08-10T05:45:21.451Z,952.53
2022-08-10T05:48:41.759Z,939.57
2022-08-10T05:50:37.991Z,899.33
2022-08-10T05:53:59.886Z,913.37
2022-08-10T05:55:55.792Z,943.53
2022-08-10T05:58:23.891Z,910.97
2022-08-10T06:00:56.893Z,864.13
2022-08-10T06:03:29.059Z,940.20
2022-08-10T06:05:59.701Z,964.03
2022-08-10T06:08:31.515Z,914.63
2022-08-10T06:12:23.788Z,951.80
2022-08-10T06:14:13.403Z,951.33
2022-08-10T06:16:44.881Z,920.03
2022-08-10T06:19:15.293Z,912.77
2022-08-10T06:22:01.026Z,946.90
2022-08-10T06:24:31.087Z,919.57
2022-08-10T06:27:01.071Z,916.57
2022-08-10T06:29:33.056Z,855.93
2022-08-10T06:32:02.106Z,870.47
2022-08-10T06:34:34.227Z,918.80
2022-08-10T06:37:05.371Z,946.30
2022-08-10T06:39:35.379Z,943.93
2022-08-10T06:42:16.766Z,878.70
2022-08-10T06:44:58.850Z,919.67
2022-08-10T06:47:33.725Z,896.87
2022-08-10T06:50:11.407Z,918.50
2022-08-10T06:52:40.425Z,919.50
2022-08-10T06:55:16.788Z,920.10
2022-08-10T06:57:59.677Z,884.03
2022-08-10T07:00:33.993Z,897.30
2022-08-10T07:03:08.251Z,914.80
2022-08-10T07:05:40.146Z,911.23
2022-08-10T07:08:09.517Z,879.97
2022-08-10T07:10:46.113Z,896.07
2022-08-10T07:14:14.366Z,911.70
2022-08-10T07:16:09.053Z,900.10
2022-08-10T07:18:37.573Z,930.60
2022-08-10T07:21:08.383Z,914.20
2022-08-10T07:23:56.758Z,893.27
2022-08-10T07:26:26.712Z,868.47
2022-08-10T07:28:56.961Z,893.03
2022-08-10T07:31:33.072Z,888.47
2022-08-10T07:34:22.627Z,826.87
2022-08-10T07:37:00.913Z,843.40
2022-08-10T07:40:03.149Z,924.60
2022-08-10T07:42:21.267Z,885.90
2022-08-10T07:44:51.447Z,856.47
2022-08-10T07:47:53.140Z,856.40
2022-08-10T07:50:15.140Z,916.60
2022-08-10T07:52:44.760Z,876.17
2022-08-10T07:55:16.638Z,904.60
2022-08-10T07:57:47.608Z,936.57
2022-08-10T08:00:18.550Z,844.13
2022-08-10T08:02:49.849Z,893.07
2022-08-10T08:05:54.875Z,891.27
2022-08-10T08:08:08.086Z,889.47
2022-08-10T08:10:39.028Z,890.20
2022-08-10T08:13:07.386Z,905.50
2022-08-10T08:16:15.663Z,854.00
2022-08-10T08:18:26.560Z,861.73
2022-08-10T08:20:55.759Z,858.23
2022-08-10T08:24:04.647Z,896.90
2022-08-10T08:26:16.067Z,849.33
2022-08-10T08:28:48.596Z,864.70
2022-08-10T08:31:19.189Z,889.17
2022-08-10T08:33:48.901Z,878.70
2022-08-10T08:36:19.092Z,839.10
2022-08-10T08:38:48.391Z,872.50
2022-08-10T08:41:46.541Z,874.70
2022-08-10T08:44:24.616Z,867.63
2022-08-10T08:48:02.093Z,826.23
2022-08-10T08:50:12.480Z,869.90
2022-08-10T08:52:53.754Z,858.67
2022-08-10T08:56:04.768Z,829.43
2022-08-10T08:58:47.578Z,839.50
2022-08-10T09:01:40.174Z,858.40
2022-08-10T09:04:25.675Z,821.67
2022-08-10T09:08:01.263Z,817.30
2022-08-10T09:10:20.138Z,839.40
2022-08-10T09:12:53.969Z,844.97
2022-08-10T09:15:39.315Z,847.57
2022-08-10T09:18:17.276Z,872.67
2022-08-10T09:20:50.258Z,828.57
2022-08-10T09:24:01.236Z,840.57
2022-08-10T09:26:19.452Z,808.87
2022-08-10T09:29:11.522Z,799.10
2022-08-10T09:33:05.530Z,830.33
2022-08-10T09:36:21.265Z,847.27
2022-08-10T09:38:02.236Z,858.33
2022-08-10T09:41:00.576Z,826.27
2022-08-10T09:43:37.764Z,868.27
2022-08-10T09:46:12.994Z,819.50
2022-08-10T09:48:48.606Z,823.67
2022-08-10T09:51:47.182Z,828.00
2022-08-10T09:54:49.828Z,789.10
2022-08-10T09:57:43.944Z,788.60
2022-08-10T10:00:15.409Z,801.00
2022-08-10T10:02:53.582Z,850.87
2022-08-10T10:05:33.678Z,837.57
2022-08-10T10:08:10.498Z,825.90
2022-08-10T10:10:47.537Z,821.97
2022-08-10T10:13:44.762Z,834.97
2022-08-10T10:16:34.606Z,859.23
2022-08-10T10:19:12.906Z,802.47
2022-08-10T10:21:53.948Z,836.63
2022-08-10T10:24:31.124Z,821.70
2022-08-10T10:27:16.078Z,822.87
2022-08-10T10:29:56.798Z,847.93
2022-08-10T10:32:36.916Z,789.43
2022-08-10T10:35:16.450Z,782.67
2022-08-10T10:38:01.887Z,838.20
2022-08-10T10:40:39.099Z,842.87
2022-08-10T10:43:16.722Z,791.60
2022-08-10T10:45:54.698Z,817.40
2022-08-10T10:48:33.922Z,821.40
2022-08-10T10:51:13.449Z,760.30
2022-08-10T10:53:48.646Z,820.30
2022-08-10T10:56:25.537Z,798.03
2022-08-10T10:59:35.505Z,773.63
2022-08-10T11:02:02.082Z,808.20
2022-08-10T11:04:41.455Z,783.17
2022-08-10T11:07:21.813Z,804.53
2022-08-10T11:10:04.934Z,794.00
2022-08-10T11:12:50.957Z,833.97
2022-08-10T11:15:26.605Z,801.20
2022-08-10T11:18:00.194Z,767.07
2022-08-10T11:20:34.372Z,788.60
2022-08-10T11:23:10.547Z,810.03
2022-08-10T11:25:42.356Z,803.43
2022-08-10T11:28:15.648Z,810.70
2022-08-10T11:30:48.906Z,817.37
2022-08-10T11:33:32.892Z,801.00
2022-08-10T11:36:06.175Z,839.30
2022-08-10T11:38:57.649Z,824.53
2022-08-10T11:42:08.803Z,852.07
2022-08-10T11:44:31.940Z,776.27
2022-08-10T11:47:07.575Z,779.90
2022-08-10T11:49:43.454Z,826.23
2022-08-10T11:52:16.350Z,766.13
2022-08-10T11:54:50.774Z,797.87
2022-08-10T11:57:19.521Z,827.53
2022-08-10T11:59:58.632Z,799.40
2022-08-10T12:02:33.547Z,814.33
2022-08-10T12:05:07.414Z,770.27
2022-08-10T12:09:24.042Z,805.63
2022-08-10T12:10:30.092Z,792.20
2022-08-10T12:13:07.790Z,778.63
2022-08-10T12:15:42.291Z,741.53
2022-08-10T12:18:18.277Z,812.60
2022-08-10T12:20:51.869Z,820.57
2022-08-10T12:23:26.746Z,812.60
2022-08-10T12:26:07.436Z,779.00
2022-08-10T12:28:50.250Z,767.57
2022-08-10T12:31:24.373Z,752.33
2022-08-10T12:34:17.221Z,798.50
2022-08-10T12:36:52.392Z,780.33
2022-08-10T12:39:26.601Z,801.13
2022-08-10T12:42:00.898Z,795.07
2022-08-10T12:44:41.171Z,788.93
2022-08-10T12:47:19.239Z,820.57
2022-08-10T12:50:29.685Z,812.47
2022-08-10T12:52:58.867Z,790.63
2022-08-10T12:55:35.021Z,779.00
2022-08-10T12:58:06.675Z,812.47
2022-08-10T13:01:15.028Z,777.03
2022-08-10T13:04:21.395Z,799.50
2022-08-10T13:06:41.605Z,802.40
2022-08-10T13:09:09.979Z,795.13
2022-08-10T13:12:36.104Z,771.40
2022-08-10T13:14:34.185Z,777.53
2022-08-10T13:17:04.388Z,767.40
2022-08-10T13:19:54.602Z,804.90
2022-08-10T13:22:30.959Z,785.63
2022-08-10T13:25:03.511Z,788.20
2022-08-10T13:28:00.840Z,789.67
2022-08-10T13:30:37.829Z,762.73
2022-08-10T13:33:08.225Z,790.47
2022-08-10T13:35:37.054Z,759.43
2022-08-10T13:38:09.784Z,757.63
2022-08-10T13:40:39.482Z,809.30
2022-08-10T13:43:08.600Z,754.63
2022-08-10T13:45:45.116Z,764.70
2022-08-10T13:48:20.505Z,790.03
2022-08-10T13:50:50.394Z,834.43
2022-08-10T13:53:21.794Z,769.47
2022-08-10T13:55:55.380Z,818.60
2022-08-10T13:58:29.812Z,782.43
2022-08-10T14:00:59.423Z,767.63
2022-08-10T14:03:28.531Z,765.77
2022-08-10T14:05:58.746Z,770.63
2022-08-10T14:08:32.169Z,792.80
2022-08-10T14:11:10.963Z,766.43
2022-08-10T14:13:44.966Z,785.03
2022-08-10T14:16:14.045Z,720.57
2022-08-10T14:18:45.039Z,774.47
2022-08-10T14:21:13.954Z,778.93
2022-08-10T14:23:53.112Z,779.87
2022-08-10T14:26:25.006Z,777.43
2022-08-10T14:28:57.271Z,755.93
2022-08-10T14:31:33.524Z,786.43
2022-08-10T14:34:03.666Z,779.57
2022-08-10T14:36:43.468Z,744.00
2022-08-10T14:39:21.916Z,737.83
2022-08-10T14:42:03.138Z,765.47
2022-08-10T14:44:44.986Z,794.53
2022-08-10T14:47:53.359Z,775.73
2022-08-10T14:50:05.854Z,760.63
2022-08-10T14:52:44.274Z,635.57
2022-08-10T14:55:19.719Z,636.73
2022-08-10T14:58:19.042Z,428.37
2022-08-10T15:00:42.902Z,517.50
2022-08-10T15:03:59.401Z,484.80
2022-08-10T15:06:09.324Z,585.50
2022-08-10T15:08:47.783Z,583.67
2022-08-10T15:12:15.857Z,575.87
2022-08-10T15:14:41.103Z,419.93
2022-08-10T15:16:57.996Z,348.03
2022-08-10T15:20:01.643Z,633.63
2022-08-10T15:22:37.022Z,540.47
2022-08-10T15:25:18.385Z,606.50
2022-08-10T15:27:56.609Z,627.17
2022-08-10T15:30:34.765Z,458.40
2022-08-10T15:33:56.936Z,593.87
2022-08-10T15:36:34.757Z,295.57
2022-08-10T15:39:16.518Z,391.63
2022-08-10T15:42:00.786Z,469.03
2022-08-10T15:44:39.587Z,576.77
2022-08-10T15:47:12.119Z,593.27
2022-08-10T15:49:49.208Z,557.63
2022-08-10T15:52:38.794Z,558.20
2022-08-10T15:55:41.106Z,501.43
2022-08-10T15:58:07.585Z,621.57
2022-08-10T16:00:40.742Z,579.87
2022-08-10T16:03:15.413Z,607.57
2022-08-10T16:06:02.147Z,480.27
2022-08-10T16:08:56.125Z,513.63
2022-08-10T16:11:37.402Z,693.20
2022-08-10T16:14:13.029Z,563.97
2022-08-10T16:16:44.927Z,403.93
2022-08-10T16:19:22.242Z,603.53
2022-08-10T16:22:00.808Z,620.00
2022-08-10T16:24:35.228Z,618.37
2022-08-10T16:27:07.294Z,546.57
2022-08-10T16:29:56.093Z,656.13
2022-08-10T16:32:27.493Z,511.27
2022-08-10T16:34:57.533Z,636.37
2022-08-10T16:37:56.573Z,582.57
2022-08-10T16:40:26.385Z,534.73
2022-08-10T16:42:55.117Z,571.97
2022-08-10T16:45:39.467Z,551.90
2022-08-10T16:48:11.273Z,609.97
2022-08-10T16:50:45.211Z,506.83
2022-08-10T16:53:15.497Z,620.17
2022-08-10T16:55:50.531Z,570.87
2022-08-10T16:58:25.194Z,632.00
2022-08-10T17:00:54.266Z,554.77
2022-08-10T17:04:05.555Z,578.50
2022-08-10T17:06:23.375Z,589.10
2022-08-10T17:08:54.871Z,568.57
2022-08-10T17:11:28.827Z,590.43
2022-08-10T17:13:58.035Z,592.70
2022-08-10T17:16:28.444Z,547.10
2022-08-10T17:18:58.999Z,433.83
2022-08-10T17:21:30.342Z,523.73
2022-08-10T17:24:03.180Z,556.13
2022-08-10T17:26:37.239Z,519.23
2022-08-10T17:29:53.405Z,552.90
2022-08-10T17:32:06.430Z,475.70
2022-08-10T17:34:39.455Z,544.10
2022-08-10T17:37:18.702Z,478.33
2022-08-10T17:39:51.040Z,555.00
2022-08-10T17:42:22.222Z,461.03
2022-08-10T17:44:52.652Z,585.37
2022-08-10T17:47:21.872Z,602.03
2022-08-10T17:49:55.911Z,578.43
2022-08-10T17:52:27.003Z,548.80
2022-08-10T17:54:57.660Z,517.97
2022-08-10T17:57:28.124Z,540.97
2022-08-10T18:00:01.778Z,624.03
2022-08-10T18:02:35.296Z,561.70
2022-08-10T18:05:09.006Z,511.57
2022-08-10T18:07:41.360Z,498.93
2022-08-10T18:10:11.703Z,576.23
2022-08-10T18:12:44.746Z,436.53
2022-08-10T18:15:15.540Z,547.63
2022-08-10T18:17:46.895Z,531.10
2022-08-10T18:20:20.155Z,561.93
2022-08-10T18:22:57.071Z,516.57
2022-08-10T18:25:28.481Z,543.90
2022-08-10T18:28:04.188Z,452.47
2022-08-10T18:30:37.289Z,562.90
2022-08-10T18:33:11.713Z,497.03
2022-08-10T18:35:42.703Z,594.53
2022-08-10T18:38:12.949Z,561.07
2022-08-10T18:40:45.060Z,589.93
2022-08-10T18:44:06.840Z,597.63
2022-08-10T18:46:11.443Z,592.33
2022-08-10T18:48:45.268Z,619.73
2022-08-10T18:51:15.361Z,609.77
2022-08-10T18:53:51.493Z,628.73
2022-08-10T18:56:31.768Z,545.57
2022-08-10T18:59:20.100Z,599.77
2022-08-10T19:02:05.065Z,572.17
2022-08-10T19:04:51.211Z,615.40
2022-08-10T19:07:44.317Z,590.90
2022-08-10T19:10:27.746Z,667.50
2022-08-10T19:13:05.114Z,665.83
2022-08-10T19:15:42.914Z,606.23
2022-08-10T19:18:22.711Z,550.93
2022-08-10T19:20:58.756Z,694.70
2022-08-10T19:23:43.158Z,581.00
2022-08-10T19:26:45.070Z,613.40
2022-08-10T19:30:10.234Z,612.37
2022-08-10T19:32:30.247Z,582.13
2022-08-10T19:35:04.193Z,621.40
2022-08-10T19:37:40.491Z,617.80
2022-08-10T19:40:46.185Z,627.43
2022-08-10T19:43:30.736Z,701.30
2022-08-10T19:46:13.429Z,602.77
2022-08-10T19:48:48.443Z,631.97
2022-08-10T19:51:23.824Z,672.40
2022-08-10T19:54:00.373Z,589.90
2022-08-10T19:56:39.216Z,526.20
2022-08-10T20:00:18.930Z,673.43
2022-08-10T20:02:10.739Z,682.87
2022-08-10T20:04:51.308Z,580.63
2022-08-10T20:07:23.396Z,635.00
2022-08-10T20:10:00.279Z,669.17
2022-08-10T20:12:41.932Z,687.00
2022-08-10T20:15:12.752Z,715.17
2022-08-10T20:17:52.466Z,604.80
2022-08-10T20:20:31.373Z,719.33
2022-08-10T20:23:12.262Z,738.90
2022-08-10T20:25:43.487Z,630.73
2022-08-10T20:28:20.610Z,693.30
2022-08-10T20:30:53.152Z,565.37
2022-08-10T20:33:29.211Z,677.10
2022-08-10T20:36:04.281Z,672.83
2022-08-10T20:38:39.901Z,805.83
2022-08-10T20:41:25.461Z,683.90
2022-08-10T20:44:04.742Z,459.30
2022-08-10T20:46:38.707Z,614.27
2022-08-10T20:49:20.787Z,630.30
2022-08-10T20:51:58.777Z,546.57
2022-08-10T20:54:37.411Z,751.40
2022-08-10T20:57:56.356Z,726.73
2022-08-10T21:00:42.589Z,643.83
2022-08-10T21:03:40.706Z,523.80
2022-08-10T21:06:43.144Z,681.00
2022-08-10T21:09:25.428Z,750.93
2022-08-10T21:12:07.984Z,595.97
2022-08-10T21:14:47.488Z,716.70
2022-08-10T21:17:40.014Z,713.30
2022-08-10T21:20:34.339Z,651.77
2022-08-10T21:23:06.011Z,552.53
2022-08-10T21:25:47.818Z,594.97
2022-08-10T21:28:50.024Z,627.20
2022-08-10T21:31:33.365Z,560.90
2022-08-10T21:34:11.404Z,400.90
2022-08-10T21:36:47.159Z,594.87
2022-08-10T21:39:21.896Z,663.07
2022-08-10T21:42:39.839Z,732.47
2022-08-10T21:45:57.001Z,689.27
2022-08-10T21:48:57.617Z,656.40
2022-08-10T21:52:01.454Z,711.13
2022-08-10T21:54:57.870Z,615.33
2022-08-10T21:57:48.194Z,401.63
2022-08-10T22:00:35.568Z,353.53
2022-08-10T22:03:23.059Z,782.20
2022-08-10T22:06:11.565Z,644.43
2022-08-10T22:09:03.196Z,629.70
2022-08-10T22:11:51.830Z,551.00
2022-08-10T22:14:43.345Z,712.63
2022-08-10T22:18:01.171Z,573.70
2022-08-10T22:20:45.227Z,687.43
2022-08-10T22:23:55.320Z,555.93
2022-08-10T22:27:00.567Z,570.47
2022-08-10T22:29:54.905Z,633.93
2022-08-10T22:32:53.380Z,666.83
2022-08-10T22:36:02.236Z,628.70
2022-08-10T22:39:02.429Z,598.63
2022-08-10T22:42:04.637Z,613.73
2022-08-10T22:44:57.155Z,665.10
2022-08-10T22:47:45.026Z,485.63
2022-08-10T22:50:12.814Z,557.53
2022-08-10T22:52:57.394Z,676.87
2022-08-10T22:55:51.995Z,580.93
2022-08-10T22:58:39.843Z,669.30
2022-08-10T23:01:14.107Z,625.47
2022-08-10T23:03:52.594Z,627.27
2022-08-10T23:06:27.106Z,710.33
2022-08-10T23:09:01.102Z,629.10
2022-08-10T23:11:33.738Z,504.87
2022-08-10T23:14:06.492Z,625.40
2022-08-10T23:16:59.214Z,669.37
2022-08-10T23:19:29.383Z,696.17
2022-08-10T23:22:05.625Z,657.70
2022-08-10T23:24:37.069Z,547.43
2022-08-10T23:27:12.578Z,551.17
2022-08-10T23:30:09.968Z,721.67
2022-08-10T23:32:42.721Z,604.40
2022-08-10T23:36:31.445Z,674.43
2022-08-10T23:38:04.313Z,531.23
2022-08-10T23:40:33.489Z,639.07
2022-08-10T23:43:02.582Z,733.83
2022-08-10T23:45:53.298Z,620.73
2022-08-10T23:48:24.657Z,719.17
2022-08-10T23:51:16.561Z,673.90
2022-08-10T23:53:48.013Z,641.93
2022-08-10T23:56:19.140Z,560.57
2022-08-10T23:58:49.714Z,538.43
